Time;durP1;ratioP1;P1;durP2;ratioP2;P2;SDS_P1;SDS_P2;PMS_P1;PMS_P2;Temp;Humidity;BMP_temperature;BMP_pressure;BME280_temperature;BME280_humidity;BME280_pressure;Samples;Min_cycle;Max_cycle;Signal;HPM_P1;HPM_P2
2022/05/11 00:01:57;;;;;;;8.97;8.03;;;21.20;99.90;;;;;;5016792;28;20443;-75
2022/05/11 00:04:22;;;;;;;9.90;9.00;;;21.10;99.90;;;;;;5014414;28;20216;-74
2022/05/11 00:06:50;;;;;;;9.50;8.20;;;21.10;99.90;;;;;;5014816;28;20479;-74
2022/05/11 00:09:18;;;;;;;9.17;8.47;;;21.10;99.90;;;;;;5018151;28;20209;-76
2022/05/11 00:11:44;;;;;;;9.13;8.20;;;21.10;99.90;;;;;;5018631;28;20938;-76
2022/05/11 00:14:12;;;;;;;9.87;8.87;;;21.10;99.90;;;;;;5018635;28;20465;-77
2022/05/11 00:16:38;;;;;;;8.70;7.90;;;21.10;99.90;;;;;;5011676;28;20823;-77
2022/05/11 00:19:03;;;;;;;8.80;8.00;;;21.10;99.90;;;;;;5009513;28;20498;-74
2022/05/11 00:21:30;;;;;;;9.50;8.60;;;21.10;99.90;;;;;;5015258;28;20239;-76
2022/05/11 00:23:55;;;;;;;9.20;8.30;;;21.10;99.90;;;;;;5010710;28;20209;-76
2022/05/11 00:26:21;;;;;;;8.03;7.30;;;21.10;99.90;;;;;;5010337;28;20525;-77
2022/05/11 00:28:47;;;;;;;9.57;8.67;;;21.10;99.90;;;;;;5013716;28;20220;-75
2022/05/11 00:31:12;;;;;;;10.30;9.30;;;21.10;99.90;;;;;;5012160;28;20883;-76
2022/05/11 00:33:38;;;;;;;8.83;8.03;;;21.10;99.90;;;;;;5014662;28;20196;-75
2022/05/11 00:36:11;;;;;;;9.67;8.40;;;21.10;99.90;;;;;;5026162;28;20282;-77
2022/05/11 00:38:37;;;;;;;9.57;8.63;;;21.00;99.90;;;;;;5015732;28;20556;-74
2022/05/11 00:41:03;;;;;;;8.97;8.10;;;21.00;99.90;;;;;;5012322;28;20453;-75
2022/05/11 00:43:35;;;;;;;10.00;9.10;;;20.90;99.90;;;;;;5013227;28;20212;-75
2022/05/11 00:46:24;;;;;;;7.90;7.30;;;20.90;99.90;;;;;;5015651;28;20478;-75
2022/05/11 00:51:51;;;;;;;9.40;8.37;;;21.20;99.90;;;;;;5018034;28;20445;-74
2022/05/11 00:54:20;;;;;;;8.40;7.53;;;21.20;99.90;;;;;;5036179;28;20469;-74
2022/05/11 00:57:00;;;;;;;9.00;8.20;;;21.10;99.90;;;;;;5014350;28;20440;-74
2022/05/11 00:59:31;;;;;;;9.47;8.57;;;21.00;99.90;;;;;;5018992;28;20442;-73
2022/05/11 01:02:03;;;;;;;9.17;8.20;;;20.90;99.90;;;;;;5015654;28;20448;-74
2022/05/11 01:04:31;;;;;;;11.17;10.10;;;20.80;99.90;;;;;;5030435;28;20581;-76
2022/05/11 01:06:57;;;;;;;9.50;8.60;;;20.70;99.90;;;;;;5024456;28;20573;-75
2022/05/11 01:09:23;;;;;;;10.07;9.07;;;20.70;99.90;;;;;;5013028;28;20497;-76
2022/05/11 01:11:51;;;;;;;12.33;9.00;;;20.80;99.90;;;;;;5009153;28;20562;-75
2022/05/11 01:14:21;;;;;;;11.70;10.10;;;20.70;99.90;;;;;;5014205;28;20197;-74
2022/05/11 01:16:47;;;;;;;9.53;8.73;;;20.80;99.90;;;;;;5015224;28;20501;-75
2022/05/11 01:19:33;;;;;;;9.20;8.30;;;21.00;99.90;;;;;;5011304;28;20440;-76
2022/05/11 01:22:11;;;;;;;9.97;8.97;;;21.10;99.90;;;;;;5011773;28;20446;-73
2022/05/11 01:24:41;;;;;;;10.27;9.33;;;20.80;99.90;;;;;;5017025;28;20563;-74
2022/05/11 01:27:41;;;;;;;8.90;8.00;;;20.60;99.90;;;;;;5008327;28;20474;-76
2022/05/11 01:30:19;;;;;;;9.53;8.63;;;20.50;99.90;;;;;;5022339;28;20882;-75
2022/05/11 01:32:53;;;;;;;9.67;8.87;;;20.50;99.90;;;;;;5030625;28;20961;-75
2022/05/11 01:35:22;;;;;;;9.53;8.63;;;20.60;99.90;;;;;;5013352;28;20446;-74
2022/05/11 01:38:05;;;;;;;9.47;8.67;;;20.60;99.90;;;;;;5010289;28;20440;-77
2022/05/11 01:40:30;;;;;;;9.93;9.03;;;20.50;99.90;;;;;;5010597;28;20439;-76
2022/05/11 01:42:56;;;;;;;10.40;9.40;;;20.40;99.90;;;;;;5009807;28;20454;-74
2022/05/11 01:45:22;;;;;;;10.27;9.37;;;20.20;99.90;;;;;;5012948;28;20715;-74
2022/05/11 01:47:47;;;;;;;10.67;9.60;;;20.20;99.90;;;;;;5027370;28;20212;-74
2022/05/11 01:50:13;;;;;;;10.87;9.80;;;20.10;99.90;;;;;;5007854;28;20184;-76
2022/05/11 01:52:39;;;;;;;8.87;8.03;;;20.10;99.90;;;;;;5009124;28;20715;-76
2022/05/11 01:55:05;;;;;;;10.13;9.17;;;19.90;99.90;;;;;;5009816;28;20192;-75
2022/05/11 01:57:30;;;;;;;9.93;8.87;;;20.00;99.90;;;;;;5008428;28;20192;-76
2022/05/11 01:59:56;;;;;;;10.07;8.90;;;20.10;99.90;;;;;;5008318;28;20874;-74
2022/05/11 02:02:22;;;;;;;10.53;8.80;;;20.00;99.90;;;;;;5012499;28;20181;-76
2022/05/11 02:07:50;;;;;;;9.83;8.83;;;19.90;99.90;;;;;;5008421;28;20757;-76
2022/05/11 02:10:17;;;;;;;9.20;8.30;;;19.80;99.90;;;;;;5006894;28;20434;-74
2022/05/11 02:12:42;;;;;;;8.33;7.50;;;19.80;99.90;;;;;;5007707;28;20556;-74
2022/05/11 02:15:09;;;;;;;10.17;8.90;;;19.70;99.90;;;;;;5007871;28;20954;-75
2022/05/11 02:17:35;;;;;;;9.40;8.60;;;19.70;99.90;;;;;;5009934;28;20250;-76
2022/05/11 02:20:00;;;;;;;9.77;8.80;;;19.70;99.90;;;;;;5008105;28;20439;-74
2022/05/11 02:22:27;;;;;;;9.20;8.40;;;19.50;99.90;;;;;;5011473;28;20726;-76
2022/05/11 02:24:52;;;;;;;8.97;8.17;;;19.40;99.90;;;;;;5011948;28;20648;-75
2022/05/11 02:27:18;;;;;;;9.97;9.00;;;19.50;99.90;;;;;;5014389;28;20439;-76
2022/05/11 02:29:43;;;;;;;9.33;8.40;;;19.50;99.90;;;;;;5010291;28;20212;-74
2022/05/11 02:32:09;;;;;;;9.93;8.23;;;19.40;99.90;;;;;;5010819;28;20283;-75
2022/05/11 02:37:19;;;;;;;9.30;8.30;;;19.40;99.90;;;;;;5011100;28;20259;-74
2022/05/11 02:39:45;;;;;;;8.90;7.77;;;19.30;99.90;;;;;;5013370;28;20491;-75
2022/05/11 02:42:12;;;;;;;8.90;8.00;;;19.30;99.90;;;;;;5008261;28;20181;-77
2022/05/11 02:44:37;;;;;;;8.40;7.70;;;19.20;99.90;;;;;;5010315;28;20456;-76
2022/05/11 02:47:03;;;;;;;8.77;7.87;;;19.40;99.90;;;;;;5007894;28;20693;-75
2022/05/11 02:49:29;;;;;;;9.13;7.83;;;19.60;99.90;;;;;;5011727;28;20188;-76
2022/05/11 02:51:54;;;;;;;8.90;8.00;;;19.60;99.90;;;;;;5025003;28;20180;-75
2022/05/11 02:54:20;;;;;;;8.93;8.00;;;19.60;99.90;;;;;;5011267;28;20278;-75
2022/05/11 02:56:46;;;;;;;10.50;8.10;;;19.40;99.90;;;;;;5024859;28;20221;-76
2022/05/11 02:59:11;;;;;;;8.30;7.40;;;19.30;99.90;;;;;;5012395;28;20185;-77
2022/05/11 03:01:37;;;;;;;12.23;8.70;;;19.40;99.90;;;;;;5012310;28;20228;-75
2022/05/11 03:04:03;;;;;;;8.23;7.43;;;19.30;99.90;;;;;;5014655;28;20208;-75
2022/05/11 03:06:28;;;;;;;9.50;8.50;;;19.30;99.90;;;;;;5014134;28;20200;-78
2022/05/11 03:08:54;;;;;;;8.53;7.63;;;19.30;99.90;;;;;;5015703;28;20192;-77
2022/05/11 03:11:20;;;;;;;8.77;7.90;;;19.40;99.90;;;;;;5024767;28;21215;-76
2022/05/11 03:13:45;;;;;;;9.13;8.30;;;19.40;99.90;;;;;;5019977;28;20287;-74
2022/05/11 03:16:11;;;;;;;8.33;7.53;;;19.50;99.90;;;;;;5017883;28;20717;-77
2022/05/11 03:18:36;;;;;;;9.20;8.30;;;19.60;99.90;;;;;;5015898;28;20184;-74
2022/05/11 03:21:02;;;;;;;9.63;8.37;;;19.60;99.90;;;;;;5012074;28;20223;-74
2022/05/11 03:23:28;;;;;;;8.13;7.33;;;19.50;99.90;;;;;;5012229;28;20208;-74
2022/05/11 03:25:54;;;;;;;7.80;7.10;;;19.50;99.90;;;;;;5011479;28;20219;-74
2022/05/11 03:28:21;;;;;;;9.50;7.90;;;19.50;99.90;;;;;;5010592;28;20196;-75
2022/05/11 03:30:46;;;;;;;9.43;8.53;;;19.50;99.90;;;;;;5012828;28;20427;-75
2022/05/11 03:35:56;;;;;;;8.97;8.20;;;19.40;99.90;;;;;;5013381;28;20319;-77
2022/05/11 03:38:22;;;;;;;11.27;10.10;;;19.30;99.90;;;;;;5010517;28;20534;-77
2022/05/11 03:40:47;;;;;;;8.90;8.10;;;19.30;99.90;;;;;;5015768;28;20196;-77
2022/05/11 03:43:13;;;;;;;11.03;8.40;;;19.30;99.90;;;;;;5011135;28;20200;-76
2022/05/11 03:45:39;;;;;;;9.17;8.33;;;19.20;99.90;;;;;;5015739;28;20231;-77
2022/05/11 03:48:04;;;;;;;15.47;8.27;;;19.10;99.90;;;;;;5013661;28;21081;-76
2022/05/11 03:50:31;;;;;;;9.27;8.47;;;19.20;99.90;;;;;;5019023;28;20181;-77
2022/05/11 03:52:57;;;;;;;8.67;7.87;;;19.10;99.90;;;;;;5018578;28;20201;-77
2022/05/11 03:55:25;;;;;;;9.43;8.53;;;19.20;99.90;;;;;;5016990;28;20464;-76
2022/05/11 03:57:51;;;;;;;9.50;8.13;;;19.20;99.90;;;;;;5017061;28;20192;-76
2022/05/11 04:00:21;;;;;;;8.30;7.23;;;19.20;99.90;;;;;;5015923;28;20454;-75
2022/05/11 04:02:47;;;;;;;8.17;7.37;;;19.10;99.90;;;;;;5014897;28;20435;-78
2022/05/11 04:05:14;;;;;;;8.70;7.87;;;19.10;99.90;;;;;;5015810;28;20476;-78
2022/05/11 04:07:43;;;;;;;9.47;8.57;;;19.20;99.90;;;;;;5016841;28;20449;-76
2022/05/11 04:10:10;;;;;;;9.20;8.20;;;19.10;99.90;;;;;;5017941;28;20486;-78
2022/05/11 04:12:36;;;;;;;10.70;8.30;;;19.20;99.90;;;;;;5015969;28;20815;-78
2022/05/11 04:15:03;;;;;;;8.20;7.50;;;19.10;99.90;;;;;;5030953;28;20439;-76
2022/05/11 04:17:29;;;;;;;9.17;8.30;;;19.10;99.90;;;;;;5017073;28;20196;-77
2022/05/11 04:19:55;;;;;;;9.60;8.70;;;18.90;99.90;;;;;;5013667;28;20450;-78
2022/05/11 04:22:21;;;;;;;9.27;8.47;;;18.90;99.90;;;;;;5017790;28;20189;-77
2022/05/11 04:24:47;;;;;;;8.03;7.20;;;19.00;99.90;;;;;;5018417;28;20457;-74
2022/05/11 04:27:13;;;;;;;10.10;8.40;;;19.00;99.90;;;;;;5013066;28;20185;-74
2022/05/11 04:29:40;;;;;;;8.80;8.00;;;18.90;99.90;;;;;;5014304;28;20517;-75
2022/05/11 04:32:07;;;;;;;8.50;7.70;;;18.90;99.90;;;;;;5015798;28;20522;-76
2022/05/11 04:34:34;;;;;;;9.37;8.47;;;19.00;99.90;;;;;;5015804;28;20466;-76
2022/05/11 04:36:59;;;;;;;8.70;7.80;;;19.00;99.90;;;;;;5014811;28;20903;-76
2022/05/11 04:39:27;;;;;;;8.57;7.77;;;19.10;99.90;;;;;;5012009;28;20469;-77
2022/05/11 04:41:53;;;;;;;8.50;7.70;;;19.00;99.90;;;;;;5011570;28;20188;-77
2022/05/11 04:44:19;;;;;;;9.90;7.90;;;18.90;99.90;;;;;;5016653;28;20455;-80
2022/05/11 04:46:44;;;;;;;8.77;7.97;;;18.80;99.90;;;;;;5022106;28;20212;-80
2022/05/11 04:49:19;;;;;;;8.90;8.10;;;18.80;99.90;;;;;;5018325;28;20200;-79
2022/05/11 04:52:00;;;;;;;8.90;8.10;;;18.80;99.90;;;;;;5026820;28;20190;-80
2022/05/11 04:54:26;;;;;;;10.23;8.10;;;18.70;99.90;;;;;;5024271;28;20477;-79
2022/05/11 04:56:51;;;;;;;11.00;8.30;;;18.70;99.90;;;;;;5020418;28;20599;-82
2022/05/11 04:59:17;;;;;;;11.50;7.83;;;18.70;99.90;;;;;;5028215;28;20215;-82
2022/05/11 05:01:44;;;;;;;9.37;8.50;;;18.70;99.90;;;;;;5038121;28;20261;-82
2022/05/11 05:04:10;;;;;;;10.63;8.00;;;18.70;99.90;;;;;;5023762;28;20215;-81
2022/05/11 05:06:36;;;;;;;9.03;8.03;;;18.70;99.90;;;;;;5025216;28;20479;-80
2022/05/11 05:09:03;;;;;;;10.53;8.07;;;18.70;99.90;;;;;;5018000;28;20234;-81
2022/05/11 05:11:30;;;;;;;10.63;7.53;;;18.60;99.90;;;;;;5022081;28;20196;-81
2022/05/11 05:13:55;;;;;;;11.53;8.80;;;18.60;99.90;;;;;;5020616;28;20481;-80
2022/05/11 05:16:23;;;;;;;9.37;8.47;;;18.60;99.90;;;;;;5025166;28;20439;-81
2022/05/11 05:18:49;;;;;;;8.63;7.70;;;18.50;99.90;;;;;;5023468;28;20185;-81
2022/05/11 05:21:15;;;;;;;8.87;8.03;;;18.60;99.90;;;;;;5020921;28;20958;-81
2022/05/11 05:23:41;;;;;;;8.67;7.77;;;18.50;99.90;;;;;;5022156;28;20493;-80
2022/05/11 05:26:07;;;;;;;8.17;7.30;;;18.50;99.90;;;;;;5022348;28;20869;-81
2022/05/11 05:31:21;;;;;;;8.10;7.30;;;18.50;99.90;;;;;;5019279;28;20195;-80
2022/05/11 05:33:58;;;;;;;8.53;7.60;;;18.50;99.90;;;;;;5023177;28;20483;-80
2022/05/11 05:36:23;;;;;;;8.70;7.80;;;18.60;99.90;;;;;;5021247;28;20928;-80
2022/05/11 05:38:52;;;;;;;8.40;7.60;;;18.80;99.90;;;;;;5018572;28;20432;-81
2022/05/11 05:41:17;;;;;;;9.60;7.80;;;18.80;99.90;;;;;;5022382;28;21093;-80
2022/05/11 05:43:43;;;;;;;8.23;7.53;;;18.80;99.90;;;;;;5019709;28;20464;-81
2022/05/11 05:46:08;;;;;;;8.67;7.60;;;18.70;99.90;;;;;;5018305;28;20274;-81
2022/05/11 05:48:34;;;;;;;9.20;8.20;;;18.90;99.90;;;;;;5019714;28;20185;-81
2022/05/11 05:51:12;;;;;;;8.43;7.63;;;18.90;99.90;;;;;;5017676;28;20212;-81
2022/05/11 05:53:42;;;;;;;8.83;8.03;;;19.00;99.90;;;;;;5022803;28;20200;-81
2022/05/11 05:56:11;;;;;;;8.43;7.47;;;19.20;99.90;;;;;;5026204;28;20439;-81
2022/05/11 05:58:45;;;;;;;10.50;8.97;;;19.20;99.90;;;;;;5024373;28;20447;-82
2022/05/11 06:01:11;;;;;;;8.60;7.70;;;19.40;99.90;;;;;;5029838;28;20453;-81
2022/05/11 06:03:37;;;;;;;8.80;7.87;;;19.50;99.90;;;;;;5043391;28;20970;-81
2022/05/11 06:06:05;;;;;;;8.27;7.47;;;19.60;99.90;;;;;;5030994;28;20463;-80
2022/05/11 06:08:30;;;;;;;8.30;7.60;;;19.50;99.90;;;;;;5026150;28;20440;-81
2022/05/11 06:10:57;;;;;;;9.30;8.30;;;19.50;99.90;;;;;;5024755;28;20434;-82
2022/05/11 06:13:23;;;;;;;9.83;7.33;;;19.70;99.90;;;;;;5028336;28;20419;-82
2022/05/11 06:15:51;;;;;;;8.30;7.50;;;19.80;99.90;;;;;;5028786;28;20435;-81
2022/05/11 06:18:17;;;;;;;9.20;8.07;;;19.90;99.90;;;;;;5025903;28;20432;-82
2022/05/11 06:20:46;;;;;;;8.90;8.00;;;20.00;99.90;;;;;;5023138;28;21357;-81
2022/05/11 06:23:12;;;;;;;8.97;8.07;;;20.00;99.90;;;;;;5019842;28;20491;-81
2022/05/11 06:25:38;;;;;;;10.00;9.00;;;20.00;99.90;;;;;;5018755;28;20477;-82
2022/05/11 06:28:07;;;;;;;8.57;7.30;;;20.00;99.90;;;;;;5018400;28;20185;-82
2022/05/11 06:30:34;;;;;;;11.37;8.70;;;20.10;99.90;;;;;;5017704;28;20431;-81
2022/05/11 06:33:02;;;;;;;8.73;7.70;;;20.20;99.90;;;;;;5032911;28;20681;-82
2022/05/11 06:35:29;;;;;;;8.20;7.03;;;20.40;99.90;;;;;;5021253;28;20457;-83
2022/05/11 06:37:55;;;;;;;8.03;6.50;;;20.50;99.90;;;;;;5017519;28;20512;-83
2022/05/11 06:40:22;;;;;;;8.13;6.47;;;20.50;99.90;;;;;;5018346;28;20477;-82
2022/05/11 06:42:52;;;;;;;7.30;6.60;;;20.60;99.90;;;;;;5019888;28;20529;-81
2022/05/11 06:45:19;;;;;;;6.97;6.30;;;20.70;99.90;;;;;;5028337;28;20464;-75
2022/05/11 06:47:45;;;;;;;8.10;6.33;;;20.70;99.90;;;;;;5011634;28;20441;-77
2022/05/11 06:50:12;;;;;;;7.00;6.33;;;20.80;99.90;;;;;;5007635;28;20514;-76
2022/05/11 06:52:38;;;;;;;7.00;6.30;;;20.80;99.90;;;;;;5016015;28;20287;-74
2022/05/11 07:00:35;;;;;;;6.93;6.23;;;21.10;99.90;;;;;;5012502;28;20550;-75
2022/05/11 07:03:01;;;;;;;7.10;6.40;;;21.20;99.90;;;;;;5011049;28;20545;-76
2022/05/11 07:05:29;;;;;;;7.37;6.67;;;21.20;99.90;;;;;;5010198;28;20464;-75
2022/05/11 07:07:54;;;;;;;7.30;6.40;;;21.30;99.90;;;;;;5011445;28;21090;-77
2022/05/11 07:10:20;;;;;;;8.30;6.63;;;21.30;99.90;;;;;;5007232;28;20573;-76
2022/05/11 07:12:47;;;;;;;6.10;5.60;;;21.40;99.90;;;;;;5014575;28;20183;-76
2022/05/11 07:15:15;;;;;;;6.43;5.83;;;21.40;99.90;;;;;;5004826;28;20184;-76
2022/05/11 07:17:46;;;;;;;6.93;6.23;;;21.50;99.90;;;;;;5009499;28;20508;-77
2022/05/11 07:20:21;;;;;;;7.47;6.50;;;21.50;99.90;;;;;;5002125;28;20498;-76
2022/05/11 07:22:47;;;;;;;6.80;5.73;;;21.60;99.90;;;;;;5012785;28;20442;-77
2022/05/11 07:25:16;;;;;;;8.90;5.90;;;21.60;99.90;;;;;;5004103;28;20466;-77
2022/05/11 07:27:44;;;;;;;6.37;5.70;;;21.80;99.90;;;;;;5009130;28;20181;-76
2022/05/11 07:30:12;;;;;;;6.33;5.73;;;21.80;99.90;;;;;;5022776;28;20481;-76
2022/05/11 07:32:38;;;;;;;8.17;5.97;;;21.90;99.90;;;;;;5026155;28;20444;-76
2022/05/11 07:35:04;;;;;;;6.37;5.70;;;22.00;99.90;;;;;;5007490;28;20438;-76
2022/05/11 07:37:30;;;;;;;5.87;5.20;;;22.10;99.90;;;;;;5009346;28;20185;-76
2022/05/11 07:39:56;;;;;;;7.87;6.00;;;22.10;99.90;;;;;;5007439;28;20471;-77
2022/05/11 07:42:23;;;;;;;10.50;5.93;;;22.20;99.90;;;;;;5010751;28;20188;-76
2022/05/11 07:44:49;;;;;;;6.27;5.77;;;22.30;99.90;;;;;;5023793;28;21222;-76
2022/05/11 07:47:16;;;;;;;6.63;5.63;;;22.40;99.90;;;;;;5010654;28;20450;-76
2022/05/11 07:49:42;;;;;;;6.37;5.87;;;22.50;99.90;;;;;;5002286;28;20666;-76
2022/05/11 07:52:08;;;;;;;7.30;5.23;;;22.50;99.90;;;;;;5008937;28;20444;-75
2022/05/11 07:54:35;;;;;;;5.90;5.30;;;22.60;99.90;;;;;;5008307;28;20208;-77
2022/05/11 07:59:56;;;;;;;11.23;5.37;;;22.80;99.90;;;;;;5010053;28;20490;-75
2022/05/11 08:02:26;;;;;;;6.63;5.77;;;22.90;99.90;;;;;;5013771;28;20513;-75
2022/05/11 08:04:53;;;;;;;6.60;5.23;;;23.10;99.90;;;;;;5007175;28;20462;-77
2022/05/11 08:07:22;;;;;;;10.33;6.00;;;23.10;99.90;;;;;;5011901;28;20431;-76
2022/05/11 08:09:48;;;;;;;6.00;5.33;;;23.10;99.90;;;;;;5009827;28;20423;-78
2022/05/11 08:12:13;;;;;;;6.00;5.50;;;23.30;99.90;;;;;;5027083;28;20458;-76
2022/05/11 08:14:39;;;;;;;5.60;5.10;;;23.40;99.90;;;;;;5012546;28;20196;-77
2022/05/11 08:17:04;;;;;;;7.40;5.83;;;23.40;99.90;;;;;;5008729;28;20193;-75
2022/05/11 08:19:30;;;;;;;6.07;5.47;;;23.50;99.90;;;;;;5008967;28;20835;-76
2022/05/11 08:21:56;;;;;;;5.90;5.40;;;23.60;99.90;;;;;;5005335;28;20648;-74
2022/05/11 08:24:22;;;;;;;6.47;5.70;;;23.60;99.90;;;;;;5011087;28;20209;-77
2022/05/11 08:26:50;;;;;;;6.00;5.40;;;23.70;99.90;;;;;;5011101;28;20816;-77
2022/05/11 08:33:19;;;;;;;5.93;5.20;;;23.70;99.90;;;;;;5010186;28;20237;-76
2022/05/11 08:34:51;;;;;;;6.17;5.67;;;23.90;99.90;;;;;;5012378;28;21116;-75
2022/05/11 08:37:17;;;;;;;9.97;5.67;;;23.90;99.90;;;;;;5006341;28;20446;-73
2022/05/11 08:39:44;;;;;;;6.50;5.80;;;24.00;99.90;;;;;;5003537;28;20439;-74
2022/05/11 08:42:12;;;;;;;6.47;5.87;;;24.00;99.90;;;;;;5004141;28;20471;-75
2022/05/11 08:44:43;;;;;;;5.77;5.30;;;24.10;99.90;;;;;;5005168;28;20491;-75
2022/05/11 08:47:41;;;;;;;6.83;4.87;;;24.10;99.90;;;;;;5010659;28;20494;-75
2022/05/11 08:50:20;;;;;;;6.50;5.30;;;24.30;99.90;;;;;;5010472;28;20926;-74
2022/05/11 08:53:00;;;;;;;5.87;5.37;;;24.20;99.90;;;;;;5025406;28;20520;-73
2022/05/11 08:55:29;;;;;;;8.20;5.60;;;24.40;99.90;;;;;;5027979;28;20435;-73
2022/05/11 08:57:57;;;;;;;5.87;5.37;;;24.50;99.90;;;;;;5008544;28;20496;-72
2022/05/11 09:00:23;;;;;;;6.83;5.27;;;24.50;99.90;;;;;;5010120;28;20510;-73
2022/05/11 09:02:59;;;;;;;7.83;5.80;;;24.70;99.90;;;;;;5015479;28;20566;-74
2022/05/11 09:05:29;;;;;;;6.50;6.00;;;24.60;99.90;;;;;;5009841;28;20474;-72
2022/05/11 09:07:57;;;;;;;8.30;5.80;;;24.70;99.90;;;;;;5010559;28;20551;-72
2022/05/11 09:10:31;;;;;;;7.53;6.07;;;24.80;99.90;;;;;;5011415;28;20439;-74
2022/05/11 09:13:02;;;;;;;8.83;6.10;;;24.80;99.90;;;;;;5013542;28;20957;-73
2022/05/11 09:15:57;;;;;;;8.33;5.80;;;24.90;99.90;;;;;;5009573;28;20534;-73
2022/05/11 09:18:36;;;;;;;6.47;5.87;;;25.00;99.50;;;;;;5007235;28;20444;-74
2022/05/11 09:21:10;;;;;;;13.00;5.70;;;25.10;99.40;;;;;;5014075;28;20493;-74
2022/05/11 09:23:40;;;;;;;9.50;4.87;;;25.00;99.10;;;;;;5013966;28;20458;-75
2022/05/11 09:26:10;;;;;;;6.43;5.80;;;25.10;99.30;;;;;;5006982;28;20464;-73
2022/05/11 09:28:39;;;;;;;6.17;5.63;;;25.20;98.80;;;;;;5009924;28;20443;-76
2022/05/11 09:31:25;;;;;;;6.80;6.20;;;25.30;99.10;;;;;;5023085;28;20547;-74
2022/05/11 09:34:00;;;;;;;9.23;5.77;;;25.40;99.40;;;;;;5010238;28;20481;-73
2022/05/11 09:37:19;;;;;;;5.93;5.43;;;25.40;98.60;;;;;;5010864;28;20450;-74
2022/05/11 09:39:54;;;;;;;5.93;5.47;;;25.40;97.90;;;;;;4994631;28;20557;-74
2022/05/11 09:42:29;;;;;;;10.03;6.10;;;25.40;98.50;;;;;;4991952;28;20907;-73
2022/05/11 09:44:55;;;;;;;7.07;6.03;;;25.50;98.30;;;;;;5002942;28;20480;-72
2022/05/11 09:47:35;;;;;;;7.53;6.83;;;25.50;97.60;;;;;;5007120;28;20434;-73
2022/05/11 09:50:24;;;;;;;6.13;5.53;;;25.50;97.40;;;;;;5010623;28;20953;-74
2022/05/11 09:52:51;;;;;;;6.07;5.57;;;25.60;97.20;;;;;;5007963;28;20522;-72
2022/05/11 09:55:31;;;;;;;6.23;5.73;;;25.80;97.40;;;;;;5007479;28;20446;-81
2022/05/11 09:58:03;;;;;;;6.37;5.77;;;25.80;96.80;;;;;;5019658;28;20440;-74
2022/05/11 10:00:36;;;;;;;7.10;5.93;;;26.00;96.30;;;;;;5000926;28;20458;-75
2022/05/11 10:03:06;;;;;;;6.93;5.60;;;26.00;96.50;;;;;;5005250;28;20469;-74
2022/05/11 10:05:47;;;;;;;7.20;6.33;;;26.20;96.40;;;;;;5003542;28;21636;-74
2022/05/11 10:08:29;;;;;;;6.30;5.70;;;26.30;96.50;;;;;;5005548;28;20576;-75
2022/05/11 10:11:10;;;;;;;5.67;5.17;;;26.30;95.30;;;;;;5005180;28;20443;-74
2022/05/11 10:13:55;;;;;;;5.93;5.40;;;26.40;94.30;;;;;;5006026;28;20868;-73
2022/05/11 10:22:55;;;;;;;6.40;5.90;;;26.40;93.20;;;;;;5005893;28;20465;-76
2022/05/11 10:25:29;;;;;;;8.37;5.43;;;26.50;92.80;;;;;;5008667;28;21047;-72
2022/05/11 10:28:37;;;;;;;5.93;5.40;;;26.50;92.50;;;;;;5006121;28;20428;-73
2022/05/11 10:31:33;;;;;;;6.17;5.57;;;26.60;91.10;;;;;;5004452;28;21027;-72
2022/05/11 10:34:32;;;;;;;7.87;5.37;;;26.60;91.40;;;;;;5010673;28;20454;-71
2022/05/11 10:37:04;;;;;;;5.97;5.40;;;26.60;90.90;;;;;;5008361;28;20538;-74
2022/05/11 10:40:06;;;;;;;6.40;5.60;;;26.60;90.30;;;;;;5006175;28;20611;-74
2022/05/11 10:42:48;;;;;;;5.87;5.27;;;26.70;90.60;;;;;;5019949;28;20518;-74
2022/05/11 10:45:21;;;;;;;5.87;5.37;;;26.70;90.70;;;;;;5007456;28;20473;-74
2022/05/11 10:48:14;;;;;;;8.20;5.50;;;26.80;89.00;;;;;;5008342;28;20434;-73
2022/05/11 10:50:50;;;;;;;5.20;4.70;;;26.80;90.10;;;;;;5012249;28;20806;-72
2022/05/11 10:53:33;;;;;;;5.73;5.07;;;26.80;86.80;;;;;;5012496;28;20536;-72
2022/05/11 10:56:34;;;;;;;6.77;4.90;;;26.90;86.40;;;;;;5006415;28;21129;-74
2022/05/11 10:59:18;;;;;;;6.10;5.43;;;27.00;87.30;;;;;;5013542;28;20443;-72
2022/05/11 11:02:06;;;;;;;6.10;5.50;;;27.00;84.90;;;;;;5011761;28;20805;-71
2022/05/11 11:04:44;;;;;;;7.37;5.80;;;27.00;84.60;;;;;;5010625;28;20550;-74
2022/05/11 11:07:22;;;;;;;5.50;5.10;;;27.10;83.50;;;;;;5014798;28;20474;-74
2022/05/11 11:10:04;;;;;;;6.60;5.90;;;27.10;82.30;;;;;;5004472;28;20959;-74
2022/05/11 11:13:04;;;;;;;8.30;5.93;;;27.20;82.20;;;;;;5009631;28;20477;-73
2022/05/11 11:15:32;;;;;;;5.60;5.10;;;27.30;82.80;;;;;;5005776;28;20471;-72
2022/05/11 11:17:58;;;;;;;7.27;5.20;;;27.30;81.80;;;;;;5005024;28;20537;-74
2022/05/11 11:20:25;;;;;;;7.30;5.63;;;27.40;81.60;;;;;;5004273;28;20471;-71
2022/05/11 11:23:17;;;;;;;5.53;5.03;;;27.40;82.20;;;;;;5004200;28;20450;-74
2022/05/11 11:25:58;;;;;;;6.00;5.43;;;27.60;80.70;;;;;;5007762;28;20467;-72
2022/05/11 11:28:28;;;;;;;7.30;5.50;;;27.70;81.90;;;;;;5005014;28;20493;-74
2022/05/11 11:31:00;;;;;;;5.93;5.43;;;27.70;77.50;;;;;;5000227;28;20441;-74
2022/05/11 11:33:31;;;;;;;5.80;5.30;;;27.80;79.00;;;;;;5001789;28;20455;-72
2022/05/11 11:36:00;;;;;;;5.67;5.20;;;27.90;78.90;;;;;;5022092;28;20446;-72
2022/05/11 11:38:29;;;;;;;10.23;4.90;;;28.10;79.40;;;;;;5008933;28;20438;-73
2022/05/11 11:41:23;;;;;;;5.20;4.70;;;28.30;78.00;;;;;;5011178;28;20454;-72
2022/05/11 11:43:57;;;;;;;6.00;4.90;;;28.40;74.10;;;;;;5015710;28;20456;-73
2022/05/11 11:46:38;;;;;;;5.67;5.27;;;28.40;73.70;;;;;;5009908;28;20461;-73
2022/05/11 11:49:24;;;;;;;7.07;5.17;;;28.50;74.70;;;;;;5021429;28;20527;-72
2022/05/11 11:51:50;;;;;;;5.60;5.10;;;28.60;74.30;;;;;;5004651;28;20442;-73
2022/05/11 11:54:38;;;;;;;5.53;5.10;;;28.90;73.90;;;;;;5020140;28;20497;-72
2022/05/11 11:57:22;;;;;;;5.50;5.00;;;29.10;71.70;;;;;;5019016;28;21450;-72
2022/05/11 11:59:51;;;;;;;6.93;5.27;;;29.30;70.00;;;;;;5005174;28;20445;-73
2022/05/11 12:02:37;;;;;;;5.27;4.80;;;30.00;67.50;;;;;;5012015;28;20405;-72
2022/05/11 12:05:24;;;;;;;5.33;4.83;;;30.90;66.70;;;;;;5011242;28;20434;-74
2022/05/11 12:16:25;;;;;;;5.53;5.03;;;34.30;56.90;;;;;;5003884;28;21222;-72
2022/05/11 12:18:51;;;;;;;5.90;5.30;;;34.10;56.00;;;;;;5022384;28;20450;-74
2022/05/11 12:21:26;;;;;;;6.97;6.13;;;34.90;55.40;;;;;;5005059;28;21207;-72
2022/05/11 12:23:53;;;;;;;8.40;6.40;;;35.10;53.80;;;;;;5002561;28;21393;-75
2022/05/11 12:26:52;;;;;;;6.53;5.63;;;35.10;53.80;;;;;;5004191;28;20498;-73
2022/05/11 12:32:08;;;;;;;6.20;4.40;;;34.40;53.70;;;;;;5006425;28;20546;-74
2022/05/11 12:34:44;;;;;;;13.00;5.13;;;34.20;53.60;;;;;;5022740;28;20463;-75
2022/05/11 12:37:29;;;;;;;6.30;5.23;;;34.30;53.40;;;;;;5008612;28;20471;-73
2022/05/11 12:39:58;;;;;;;5.33;4.93;;;34.60;52.50;;;;;;5001760;28;20442;-75
2022/05/11 12:42:46;;;;;;;6.57;5.87;;;34.50;52.20;;;;;;5006521;28;20409;-75
2022/05/11 12:45:25;;;;;;;9.03;5.50;;;34.80;51.90;;;;;;5002418;28;20775;-72
2022/05/11 12:47:59;;;;;;;5.63;5.23;;;35.20;51.30;;;;;;5009527;28;20516;-73
2022/05/11 12:50:47;;;;;;;7.17;5.10;;;34.60;51.30;;;;;;5006288;28;20451;-73
2022/05/11 12:53:15;;;;;;;6.37;5.17;;;34.90;52.20;;;;;;5006875;28;20486;-74
2022/05/11 12:55:42;;;;;;;7.23;5.10;;;34.90;51.50;;;;;;5005598;28;20561;-73
2022/05/11 12:58:07;;;;;;;6.80;4.83;;;35.20;51.30;;;;;;5006133;28;20434;-75
2022/05/11 13:00:34;;;;;;;4.57;4.20;;;34.30;50.70;;;;;;5005858;28;20474;-75
2022/05/11 13:03:24;;;;;;;6.33;4.80;;;33.90;50.60;;;;;;5006015;28;20658;-73
2022/05/11 13:05:53;;;;;;;5.93;4.80;;;33.90;51.50;;;;;;5010141;28;20878;-74
2022/05/11 13:08:21;;;;;;;5.23;4.83;;;33.70;50.70;;;;;;5007289;28;20460;-73
2022/05/11 13:10:48;;;;;;;5.40;4.27;;;33.70;50.10;;;;;;5009797;28;20456;-74
2022/05/11 13:13:25;;;;;;;5.43;4.50;;;33.80;50.60;;;;;;5006001;28;20425;-73
2022/05/11 13:15:52;;;;;;;5.03;4.63;;;33.60;50.00;;;;;;5004417;28;20764;-74
2022/05/11 13:18:28;;;;;;;5.17;4.60;;;33.40;49.50;;;;;;5004961;28;20440;-76
2022/05/11 13:20:58;;;;;;;4.33;4.03;;;33.40;49.50;;;;;;4995525;28;20973;-74
2022/05/11 13:23:45;;;;;;;4.93;4.43;;;33.40;49.20;;;;;;5005389;28;20568;-74
2022/05/11 13:26:33;;;;;;;6.80;6.20;;;33.30;48.30;;;;;;5004716;28;20433;-74
2022/05/11 13:29:08;;;;;;;6.80;4.73;;;33.20;49.00;;;;;;5002912;28;20472;-74
2022/05/11 13:31:35;;;;;;;7.07;4.60;;;33.20;49.10;;;;;;5008352;28;20433;-75
2022/05/11 13:34:03;;;;;;;4.90;4.40;;;33.30;48.20;;;;;;5007475;28;20789;-75
2022/05/11 13:36:41;;;;;;;4.03;3.73;;;33.50;48.00;;;;;;5008325;28;20405;-74
2022/05/11 13:39:09;;;;;;;4.07;3.77;;;34.10;46.30;;;;;;5006858;28;20431;-75
2022/05/11 13:41:40;;;;;;;6.20;4.17;;;34.30;46.10;;;;;;5009141;28;20511;-72
2022/05/11 13:44:32;;;;;;;4.13;3.83;;;35.00;46.10;;;;;;5008870;28;20578;-75
2022/05/11 13:49:48;;;;;;;4.10;3.70;;;34.90;44.40;;;;;;5007422;28;20468;-75
2022/05/11 13:52:32;;;;;;;4.30;3.90;;;34.70;43.10;;;;;;5006205;28;20436;-74